createdAt,value
2019-06-26T00:01:42.756Z,20.60
2019-06-26T00:04:11.933Z,20.60
2019-06-26T00:06:41.056Z,20.60
2019-06-26T00:09:10.315Z,20.50
2019-06-26T00:11:39.582Z,20.50
2019-06-26T00:14:08.847Z,20.40
2019-06-26T00:16:38.072Z,20.40
2019-06-26T00:19:59.003Z,20.40
2019-06-26T00:22:28.288Z,20.30
2019-06-26T00:24:57.455Z,20.30
2019-06-26T00:27:26.614Z,20.20
2019-06-26T00:29:55.745Z,20.20
2019-06-26T00:32:24.903Z,20.10
2019-06-26T00:34:54.144Z,20.10
2019-06-26T00:37:23.284Z,20.00
2019-06-26T00:40:12.031Z,19.90
2019-06-26T00:42:44.614Z,19.90
2019-06-26T00:45:14.371Z,19.90
2019-06-26T00:47:43.515Z,19.80
2019-06-26T00:50:13.255Z,19.80
2019-06-26T00:52:42.475Z,19.80
2019-06-26T00:55:11.591Z,19.80
2019-06-26T00:57:40.727Z,19.70
2019-06-26T01:00:10.488Z,19.70
2019-06-26T01:02:39.615Z,19.70
2019-06-26T01:05:10.624Z,19.60
2019-06-26T01:07:39.925Z,19.60
2019-06-26T01:10:10.195Z,19.60
2019-06-26T01:12:39.326Z,19.50
2019-06-26T01:15:09.542Z,19.50
2019-06-26T01:17:39.004Z,19.50
2019-06-26T01:20:08.705Z,19.40
2019-06-26T01:22:37.884Z,19.40
2019-06-26T01:25:07.225Z,19.40
2019-06-26T01:27:36.442Z,19.40
2019-06-26T01:30:06.220Z,19.40
2019-06-26T01:32:35.392Z,19.40
2019-06-26T01:35:04.827Z,19.30
2019-06-26T01:37:33.967Z,19.30
2019-06-26T01:40:03.136Z,19.30
2019-06-26T01:42:32.354Z,19.20
2019-06-26T01:45:01.491Z,19.20
2019-06-26T01:47:30.645Z,19.20
2019-06-26T01:49:59.990Z,19.20
2019-06-26T01:52:29.091Z,19.20
2019-06-26T01:54:58.265Z,19.20
2019-06-26T01:57:27.435Z,19.20
2019-06-26T01:59:56.630Z,19.20
2019-06-26T02:02:25.782Z,19.20
2019-06-26T02:05:15.363Z,19.20
2019-06-26T02:07:45.527Z,19.10
2019-06-26T02:10:15.082Z,19.10
2019-06-26T02:12:44.455Z,19.10
2019-06-26T02:15:13.837Z,19.10
2019-06-26T02:17:43.015Z,19.00
2019-06-26T02:20:12.233Z,19.00
2019-06-26T02:22:41.651Z,19.00
2019-06-26T02:25:11.216Z,19.00
2019-06-26T02:27:40.452Z,19.00
2019-06-26T02:30:31.487Z,19.00
2019-06-26T02:33:04.311Z,19.00
2019-06-26T02:35:33.396Z,19.00
2019-06-26T02:38:02.587Z,19.00
2019-06-26T02:40:31.761Z,19.00
2019-06-26T02:43:00.899Z,19.00
2019-06-26T02:45:30.121Z,19.00
2019-06-26T02:47:59.795Z,19.00
2019-06-26T02:50:28.971Z,19.00
2019-06-26T02:52:58.113Z,19.00
2019-06-26T02:55:27.314Z,18.90
2019-06-26T02:57:56.474Z,19.00
2019-06-26T03:00:25.585Z,18.90
2019-06-26T03:02:54.769Z,18.90
2019-06-26T03:05:23.918Z,18.90
2019-06-26T03:07:53.060Z,18.90
2019-06-26T03:10:22.186Z,18.90
2019-06-26T03:12:51.311Z,18.90
2019-06-26T03:15:39.692Z,18.90
2019-06-26T03:18:27.935Z,18.90
2019-06-26T03:21:16.215Z,18.80
2019-06-26T03:23:49.261Z,18.90
2019-06-26T03:26:22.191Z,18.80
2019-06-26T03:32:40.686Z,18.80
2019-06-26T03:35:28.961Z,18.80
2019-06-26T03:37:58.080Z,18.80
2019-06-26T03:40:27.261Z,18.80
2019-06-26T03:42:56.444Z,18.80
2019-06-26T03:45:26.579Z,18.80
2019-06-26T03:47:55.844Z,18.80
2019-06-26T03:50:44.221Z,18.90
2019-06-26T03:53:16.721Z,18.90
2019-06-26T03:56:04.956Z,18.90
2019-06-26T03:58:38.388Z,18.90
2019-06-26T04:01:26.633Z,19.00
2019-06-26T04:03:57.511Z,19.00
2019-06-26T04:06:26.896Z,19.00
2019-06-26T04:08:56.077Z,19.00
2019-06-26T04:11:25.241Z,19.00
2019-06-26T04:13:54.338Z,19.00
2019-06-26T04:16:23.500Z,19.10
2019-06-26T04:18:52.746Z,19.10
2019-06-26T04:21:22.090Z,19.20
2019-06-26T04:23:51.296Z,19.10
2019-06-26T04:26:20.421Z,19.10
2019-06-26T04:28:49.625Z,19.10
2019-06-26T04:31:18.779Z,19.10
2019-06-26T04:33:47.914Z,19.00
2019-06-26T04:36:17.064Z,19.00
2019-06-26T04:38:46.178Z,19.00
2019-06-26T04:41:15.385Z,19.00
2019-06-26T04:43:44.533Z,19.10
2019-06-26T04:46:13.669Z,19.10
2019-06-26T04:48:42.875Z,19.10
2019-06-26T04:51:31.130Z,19.10
2019-06-26T04:54:00.247Z,19.10
2019-06-26T04:56:29.386Z,19.10
2019-06-26T04:58:59.017Z,19.20
2019-06-26T05:01:28.209Z,19.20
2019-06-26T05:03:57.332Z,19.20
2019-06-26T05:06:26.432Z,19.20
2019-06-26T05:08:55.609Z,19.20
2019-06-26T05:11:24.729Z,19.30
2019-06-26T05:14:13.488Z,19.30
2019-06-26T05:16:42.671Z,19.30
2019-06-26T05:19:14.942Z,19.40
2019-06-26T05:21:44.041Z,19.30
2019-06-26T05:24:13.382Z,19.30
2019-06-26T05:26:42.547Z,19.30
2019-06-26T05:29:11.922Z,19.30
2019-06-26T05:31:41.146Z,19.30
2019-06-26T05:34:11.163Z,19.30
2019-06-26T05:36:40.459Z,19.40
2019-06-26T05:39:09.604Z,19.50
2019-06-26T05:41:38.761Z,19.50
2019-06-26T05:44:08.074Z,19.40
2019-06-26T05:46:37.230Z,19.50
2019-06-26T05:49:06.646Z,19.50
2019-06-26T05:51:56.051Z,19.50
2019-06-26T05:54:25.160Z,19.60
2019-06-26T05:56:54.320Z,19.60
2019-06-26T05:59:23.513Z,19.60
2019-06-26T06:01:52.631Z,19.70
2019-06-26T06:04:21.772Z,19.70
2019-06-26T06:07:32.339Z,19.90
2019-06-26T06:10:04.590Z,19.90
2019-06-26T06:12:37.098Z,20.10
2019-06-26T06:15:06.505Z,20.20
2019-06-26T06:17:54.787Z,20.20
2019-06-26T06:20:31.498Z,20.30
2019-06-26T06:23:00.626Z,20.40
2019-06-26T06:25:29.726Z,20.50
2019-06-26T06:27:58.879Z,20.70
2019-06-26T06:30:47.176Z,20.80
2019-06-26T06:33:17.060Z,20.90
2019-06-26T06:36:05.383Z,20.80
2019-06-26T06:38:35.590Z,20.90
2019-06-26T06:41:24.266Z,21.00
2019-06-26T06:43:53.523Z,20.90
2019-06-26T06:46:22.615Z,20.90
2019-06-26T06:48:51.952Z,21.00
2019-06-26T06:51:21.056Z,21.00
2019-06-26T06:53:50.295Z,21.00
2019-06-26T06:56:19.442Z,20.80
2019-06-26T06:58:48.585Z,20.80
2019-06-26T07:01:17.748Z,20.60
2019-06-26T07:03:50.321Z,20.50
2019-06-26T07:06:19.577Z,20.40
2019-06-26T07:08:48.768Z,20.30
2019-06-26T07:11:17.919Z,20.20
2019-06-26T07:13:47.223Z,20.30
2019-06-26T07:16:16.416Z,20.50
2019-06-26T07:18:45.506Z,20.50
2019-06-26T07:21:14.660Z,20.50
2019-06-26T07:23:43.763Z,20.50
2019-06-26T07:26:14.198Z,20.50
2019-06-26T07:28:43.287Z,20.50
2019-06-26T07:31:12.410Z,20.40
2019-06-26T07:33:41.525Z,20.40
2019-06-26T07:36:10.761Z,20.50
2019-06-26T07:38:39.935Z,20.50
2019-06-26T07:41:09.124Z,20.50
2019-06-26T07:43:38.254Z,20.40
2019-06-26T07:46:07.380Z,20.30
2019-06-26T07:48:36.506Z,20.30
2019-06-26T07:51:05.680Z,20.30
2019-06-26T07:53:35.303Z,20.30
2019-06-26T07:56:04.708Z,20.30
2019-06-26T07:58:33.920Z,20.20
2019-06-26T08:01:03.040Z,20.40
2019-06-26T08:03:32.254Z,20.50
2019-06-26T08:06:03.168Z,20.50
2019-06-26T08:08:32.342Z,20.40
2019-06-26T08:11:01.665Z,20.30
2019-06-26T08:13:30.798Z,20.20
2019-06-26T08:16:05.153Z,20.20
2019-06-26T08:18:34.360Z,20.20
2019-06-26T08:21:11.942Z,20.10
2019-06-26T08:23:34.511Z,20.20
2019-06-26T08:26:03.666Z,20.20
2019-06-26T08:28:32.815Z,20.20
2019-06-26T08:31:01.974Z,20.40
2019-06-26T08:33:31.127Z,20.40
2019-06-26T08:36:00.300Z,20.30
2019-06-26T08:38:29.480Z,20.40
2019-06-26T08:40:58.616Z,20.50
2019-06-26T08:43:31.083Z,20.70
2019-06-26T08:45:58.632Z,20.60
2019-06-26T08:48:39.039Z,20.50
2019-06-26T08:50:58.845Z,20.50
2019-06-26T08:53:28.032Z,20.50
2019-06-26T08:55:57.282Z,20.60
2019-06-26T08:58:26.459Z,20.70
2019-06-26T09:00:55.705Z,20.70
2019-06-26T09:03:24.860Z,20.90
2019-06-26T09:05:54.446Z,20.90
2019-06-26T09:08:24.088Z,21.00
2019-06-26T09:10:53.461Z,21.10
2019-06-26T09:13:22.655Z,21.00
2019-06-26T09:15:52.002Z,21.00
2019-06-26T09:18:35.025Z,21.10
2019-06-26T09:20:55.761Z,21.30
2019-06-26T09:23:25.262Z,21.40
2019-06-26T09:26:01.892Z,21.50
2019-06-26T09:28:36.445Z,21.40
2019-06-26T09:31:05.792Z,21.50
2019-06-26T09:33:35.571Z,21.50
2019-06-26T09:36:07.015Z,21.60
2019-06-26T09:38:36.034Z,21.70
2019-06-26T09:41:05.322Z,21.80
2019-06-26T09:43:34.592Z,21.90
2019-06-26T09:46:03.930Z,22.10
2019-06-26T09:48:33.299Z,22.30
2019-06-26T09:51:02.744Z,22.50
2019-06-26T09:53:46.012Z,22.60
2019-06-26T09:56:03.082Z,22.70
2019-06-26T09:58:32.526Z,22.80
2019-06-26T10:01:01.917Z,23.00
2019-06-26T10:03:31.242Z,23.30
2019-06-26T10:06:00.480Z,23.40
2019-06-26T10:08:33.386Z,23.50
2019-06-26T10:11:05.045Z,23.70
2019-06-26T10:13:50.785Z,23.80
2019-06-26T10:16:15.885Z,23.80
2019-06-26T10:18:45.103Z,24.00
2019-06-26T10:21:14.420Z,24.00
2019-06-26T10:23:44.048Z,23.90
2019-06-26T10:26:16.521Z,24.00
2019-06-26T10:28:45.914Z,24.00
2019-06-26T10:31:18.358Z,24.10
2019-06-26T10:33:46.169Z,24.40
2019-06-26T10:36:15.511Z,24.50
2019-06-26T10:38:44.652Z,24.80
2019-06-26T10:41:14.194Z,25.00
2019-06-26T10:43:44.554Z,24.90
2019-06-26T10:46:14.012Z,24.90
2019-06-26T10:48:46.766Z,24.80
2019-06-26T10:51:16.228Z,24.80
2019-06-26T10:54:04.693Z,25.00
2019-06-26T10:56:35.638Z,25.50
2019-06-26T10:59:06.583Z,25.90
2019-06-26T11:01:54.908Z,26.20
2019-06-26T11:04:24.139Z,26.10
2019-06-26T11:06:53.588Z,26.20
2019-06-26T11:09:22.838Z,26.30
2019-06-26T11:11:52.257Z,26.50
2019-06-26T11:15:02.996Z,26.40
2019-06-26T11:17:43.162Z,26.60
2019-06-26T11:20:11.635Z,26.80
2019-06-26T11:22:48.624Z,26.80
2019-06-26T11:25:26.349Z,26.90
2019-06-26T11:27:55.674Z,27.30
2019-06-26T11:30:53.424Z,27.70
2019-06-26T11:33:37.359Z,28.00
2019-06-26T11:36:25.726Z,28.70
2019-06-26T11:39:01.390Z,28.70
2019-06-26T11:44:52.322Z,28.70
2019-06-26T11:47:39.020Z,28.90
2019-06-26T11:50:08.618Z,29.00
2019-06-26T11:52:52.052Z,29.10
2019-06-26T11:55:33.744Z,29.00
2019-06-26T11:58:06.761Z,29.00
2019-06-26T12:00:41.718Z,28.90
2019-06-26T12:06:24.291Z,29.20
2019-06-26T12:08:58.741Z,29.60
2019-06-26T12:11:37.185Z,29.70
2019-06-26T12:14:06.550Z,29.80
2019-06-26T12:16:35.862Z,30.00
2019-06-26T12:19:05.284Z,30.10
2019-06-26T12:21:35.175Z,30.60
2019-06-26T12:24:08.531Z,31.30
2019-06-26T12:26:37.815Z,31.40
2019-06-26T12:29:09.857Z,31.70
2019-06-26T12:31:39.037Z,31.90
2019-06-26T12:34:16.601Z,31.90
2019-06-26T12:36:45.959Z,31.80
2019-06-26T12:39:15.251Z,31.70
2019-06-26T12:42:08.098Z,31.10
2019-06-26T12:44:59.844Z,30.70
2019-06-26T12:47:29.171Z,30.40
2019-06-26T12:49:58.432Z,30.60
2019-06-26T12:52:46.957Z,30.40
2019-06-26T12:55:16.523Z,30.20
2019-06-26T12:57:45.753Z,30.10
2019-06-26T13:00:37.355Z,30.00
2019-06-26T13:03:10.092Z,30.10
2019-06-26T13:05:43.351Z,30.00
2019-06-26T13:08:17.016Z,29.90
2019-06-26T13:10:50.217Z,29.80
2019-06-26T13:13:17.328Z,29.90
2019-06-26T13:15:46.645Z,29.80
2019-06-26T13:18:16.069Z,30.10
2019-06-26T13:20:53.147Z,30.10
2019-06-26T13:23:19.442Z,30.10
2019-06-26T13:26:10.657Z,30.30
2019-06-26T13:28:43.222Z,30.30
2019-06-26T13:31:31.609Z,30.50
2019-06-26T13:34:45.173Z,30.60
2019-06-26T13:37:22.015Z,30.50
2019-06-26T13:39:47.315Z,30.50
2019-06-26T13:42:48.387Z,30.60
2019-06-26T13:45:29.862Z,30.80
2019-06-26T13:48:18.484Z,31.00
2019-06-26T13:50:48.020Z,31.50
2019-06-26T13:53:36.588Z,32.20
2019-06-26T13:56:20.405Z,32.50
2019-06-26T13:59:01.269Z,32.20
2019-06-26T14:17:02.068Z,34.10
2019-06-26T14:19:34.621Z,34.10
2019-06-26T14:22:03.922Z,33.90
2019-06-26T14:24:54.227Z,34.10
2019-06-26T14:27:27.034Z,34.30
2019-06-26T14:30:16.717Z,34.70
2019-06-26T14:32:49.833Z,34.80
2019-06-26T14:35:38.328Z,34.60
2019-06-26T14:38:47.522Z,34.30
2019-06-26T14:41:17.966Z,34.30
2019-06-26T14:43:49.383Z,34.60
2019-06-26T14:55:50.757Z,35.60
2019-06-26T14:58:20.406Z,36.00
2019-06-26T15:01:08.950Z,35.90
2019-06-26T15:03:44.677Z,35.20
2019-06-26T15:06:33.126Z,35.20
2019-06-26T15:09:30.697Z,35.30
2019-06-26T15:12:10.459Z,35.50
2019-06-26T15:14:39.777Z,35.50
2019-06-26T15:17:56.186Z,35.40
2019-06-26T15:20:31.590Z,35.70
2019-06-26T15:23:15.956Z,35.90
2019-06-26T15:25:45.323Z,35.60
2019-06-26T15:28:14.584Z,34.60
2019-06-26T15:30:43.954Z,34.20
2019-06-26T15:33:13.219Z,34.60
2019-06-26T15:35:42.464Z,34.30
2019-06-26T15:38:11.682Z,34.40
2019-06-26T15:40:40.903Z,34.80
2019-06-26T15:43:10.051Z,35.10
2019-06-26T15:45:39.776Z,35.10
2019-06-26T15:48:28.337Z,35.00
2019-06-26T15:50:57.551Z,35.30
2019-06-26T15:53:26.751Z,35.30
2019-06-26T15:55:55.855Z,35.00
2019-06-26T15:58:25.019Z,34.50
2019-06-26T16:00:54.207Z,34.50
2019-06-26T16:03:42.548Z,34.30
2019-06-26T16:06:11.759Z,34.10
2019-06-26T16:08:40.888Z,33.30
2019-06-26T16:11:10.003Z,32.80
2019-06-26T16:13:39.473Z,32.70
2019-06-26T16:16:50.276Z,32.80
2019-06-26T16:19:20.099Z,32.80
2019-06-26T16:22:08.402Z,32.50
2019-06-26T16:24:37.656Z,32.20
2019-06-26T16:27:06.803Z,32.20
2019-06-26T16:29:35.970Z,32.40
2019-06-26T16:32:05.156Z,32.20
2019-06-26T16:34:34.408Z,32.30
2019-06-26T16:37:03.649Z,32.50
2019-06-26T16:39:32.805Z,32.30
2019-06-26T16:42:01.929Z,32.30
2019-06-26T16:45:12.187Z,32.30
2019-06-26T16:48:00.394Z,32.30
2019-06-26T16:50:29.667Z,32.60
2019-06-26T16:52:58.839Z,32.90
2019-06-26T16:55:28.011Z,33.00
2019-06-26T16:57:57.244Z,33.10
2019-06-26T17:00:26.464Z,32.90
2019-06-26T17:03:14.729Z,32.90
2019-06-26T17:05:43.859Z,33.10
2019-06-26T17:08:12.986Z,33.10
2019-06-26T17:10:42.119Z,32.90
2019-06-26T17:13:11.259Z,32.80
2019-06-26T17:15:40.375Z,32.90
2019-06-26T17:18:09.584Z,33.20
2019-06-26T17:20:38.744Z,33.30
2019-06-26T17:23:07.881Z,33.20
2019-06-26T17:25:37.059Z,33.00
2019-06-26T17:28:06.238Z,32.90
2019-06-26T17:30:35.342Z,32.70
2019-06-26T17:33:04.470Z,32.40
2019-06-26T17:35:33.593Z,32.30
2019-06-26T17:38:02.796Z,32.30
2019-06-26T17:40:32.048Z,31.80
2019-06-26T17:43:11.805Z,31.40
2019-06-26T17:45:32.121Z,31.30
2019-06-26T17:48:01.261Z,31.10
2019-06-26T17:50:30.412Z,31.00
2019-06-26T17:52:59.554Z,31.00
2019-06-26T17:55:28.712Z,30.80
2019-06-26T17:57:57.815Z,30.50
2019-06-26T18:00:30.394Z,30.20
2019-06-26T18:02:59.581Z,29.60
2019-06-26T18:05:28.715Z,29.20
2019-06-26T18:07:57.823Z,28.80
2019-06-26T18:10:27.065Z,28.30
2019-06-26T18:12:56.257Z,27.80
2019-06-26T18:15:25.361Z,27.50
2019-06-26T18:17:54.515Z,27.30
2019-06-26T18:20:23.670Z,27.10
2019-06-26T18:23:06.703Z,26.90
2019-06-26T18:25:23.700Z,26.70
2019-06-26T18:27:52.849Z,26.50
2019-06-26T18:30:22.901Z,26.20
2019-06-26T18:32:52.279Z,25.90
2019-06-26T18:35:40.498Z,25.80
2019-06-26T18:38:13.319Z,25.80
2019-06-26T18:40:42.471Z,25.60
2019-06-26T18:43:15.005Z,25.30
2019-06-26T18:45:42.649Z,25.00
2019-06-26T18:48:11.828Z,24.80
2019-06-26T18:50:40.935Z,24.60
2019-06-26T18:53:29.180Z,24.40
2019-06-26T18:56:17.578Z,24.30
2019-06-26T18:58:46.722Z,24.00
2019-06-26T19:01:35.019Z,23.90
2019-06-26T19:04:04.160Z,23.70
2019-06-26T19:06:33.355Z,23.60
2019-06-26T19:09:02.552Z,23.50
2019-06-26T19:11:31.907Z,23.40
2019-06-26T19:14:01.057Z,23.30
2019-06-26T19:16:30.221Z,23.10
2019-06-26T19:18:59.369Z,23.00
2019-06-26T19:21:28.592Z,22.90
2019-06-26T19:24:09.774Z,22.70
2019-06-26T19:26:28.619Z,22.50
2019-06-26T19:28:57.943Z,22.40
2019-06-26T19:31:27.095Z,22.30
2019-06-26T19:33:56.261Z,22.30
2019-06-26T19:36:28.551Z,22.10
2019-06-26T19:38:56.473Z,22.00
2019-06-26T19:41:25.661Z,21.90
2019-06-26T19:43:54.778Z,21.90
2019-06-26T19:46:23.910Z,21.80
2019-06-26T19:48:53.154Z,21.80
2019-06-26T19:51:22.340Z,21.70
2019-06-26T19:53:51.494Z,21.60
2019-06-26T19:56:20.679Z,21.60
2019-06-26T19:58:49.848Z,21.50
2019-06-26T20:01:19.049Z,21.50
2019-06-26T20:03:48.182Z,21.40
2019-06-26T20:06:17.346Z,21.10
2019-06-26T20:08:53.411Z,20.90
2019-06-26T20:11:17.511Z,20.80
2019-06-26T20:13:46.627Z,20.70
2019-06-26T20:16:16.076Z,20.70
2019-06-26T20:18:45.245Z,20.70
2019-06-26T20:21:14.380Z,20.50
2019-06-26T20:23:43.627Z,20.30
2019-06-26T20:26:12.913Z,20.30
2019-06-26T20:28:42.048Z,20.30
2019-06-26T20:31:49.377Z,20.30
2019-06-26T20:34:58.358Z,20.30
2019-06-26T20:37:30.897Z,20.20
2019-06-26T20:40:19.164Z,20.00
2019-06-26T20:42:51.351Z,20.00
2019-06-26T20:45:20.480Z,20.00
2019-06-26T20:47:49.664Z,20.00
2019-06-26T20:50:18.826Z,20.00
2019-06-26T20:52:47.985Z,19.90
2019-06-26T20:55:17.101Z,19.80
2019-06-26T20:57:46.352Z,19.70
2019-06-26T21:00:16.522Z,19.70
2019-06-26T21:02:45.674Z,19.70
2019-06-26T21:05:15.075Z,19.70
2019-06-26T21:07:44.236Z,19.80
2019-06-26T21:10:14.520Z,19.80
2019-06-26T21:12:43.695Z,19.70
2019-06-26T21:15:12.842Z,19.70
2019-06-26T21:17:41.970Z,19.70
2019-06-26T21:20:11.808Z,19.70
2019-06-26T21:22:40.959Z,19.70
2019-06-26T21:25:18.350Z,19.70
2019-06-26T21:27:40.974Z,19.60
2019-06-26T21:30:10.295Z,19.60
2019-06-26T21:32:39.434Z,19.50
2019-06-26T21:35:09.170Z,19.40
2019-06-26T21:37:38.708Z,19.30
2019-06-26T21:40:08.129Z,19.20
2019-06-26T21:42:37.276Z,19.10
2019-06-26T21:45:06.833Z,19.00
2019-06-26T21:47:35.995Z,19.00
2019-06-26T21:50:05.143Z,19.00
2019-06-26T21:52:34.325Z,19.00
2019-06-26T21:55:03.461Z,19.00
2019-06-26T21:57:32.654Z,19.00
2019-06-26T22:00:01.822Z,19.00
2019-06-26T22:02:31.107Z,19.10
2019-06-26T22:05:00.356Z,19.00
2019-06-26T22:07:29.462Z,19.00
2019-06-26T22:09:58.665Z,19.00
2019-06-26T22:12:27.780Z,19.00
2019-06-26T22:14:56.951Z,18.90
2019-06-26T22:17:26.069Z,18.90
2019-06-26T22:20:32.177Z,18.90
2019-06-26T22:25:51.019Z,18.80
2019-06-26T22:28:14.997Z,18.80
2019-06-26T22:30:44.765Z,18.80
2019-06-26T22:33:33.006Z,18.70
2019-06-26T22:36:02.175Z,18.60
2019-06-26T22:38:31.408Z,18.60
2019-06-26T22:41:00.679Z,18.50
2019-06-26T22:43:48.955Z,18.50
2019-06-26T22:46:18.179Z,18.50
2019-06-26T22:48:47.496Z,18.50
2019-06-26T22:51:16.841Z,18.50
2019-06-26T22:53:45.996Z,18.50
2019-06-26T22:56:15.316Z,18.40
2019-06-26T22:58:44.452Z,18.30
2019-06-26T23:01:13.686Z,18.30
2019-06-26T23:03:43.788Z,18.40
2019-06-26T23:06:13.084Z,18.30
2019-06-26T23:09:01.373Z,18.30
2019-06-26T23:11:30.688Z,18.20
2019-06-26T23:14:00.327Z,18.00
2019-06-26T23:16:29.466Z,18.00
2019-06-26T23:18:59.189Z,18.00
2019-06-26T23:21:28.351Z,18.00
2019-06-26T23:23:57.534Z,18.00
2019-06-26T23:26:26.695Z,18.00
2019-06-26T23:28:55.839Z,17.90
2019-06-26T23:31:25.247Z,17.90
2019-06-26T23:33:54.552Z,17.80
2019-06-26T23:36:23.994Z,17.80
2019-06-26T23:38:53.159Z,17.60
2019-06-26T23:41:22.343Z,17.60
2019-06-26T23:43:51.494Z,17.60
2019-06-26T23:46:20.651Z,17.60
2019-06-26T23:48:49.853Z,17.60
2019-06-26T23:51:18.974Z,17.70
2019-06-26T23:53:48.145Z,17.70
2019-06-26T23:56:17.276Z,17.60
2019-06-26T23:58:46.421Z,17.60
